sensor_id;sensor_type;location;lat;lon;timestamp;pressure;altitude;pressure_sealevel;temperature;humidity
39681;BME280;26327;42.550;23.120;2024-01-16T00:01:17;91351.66;;;5.04;100.00
39681;BME280;26327;42.550;23.120;2024-01-16T00:03:43;91364.47;;;5.19;100.00
39681;BME280;26327;42.550;23.120;2024-01-16T00:06:09;91350.13;;;5.10;100.00
39681;BME280;26327;42.550;23.120;2024-01-16T00:08:35;91362.81;;;5.11;100.00
39681;BME280;26327;42.550;23.120;2024-01-16T00:11:02;91347.69;;;5.23;100.00
39681;BME280;26327;42.550;23.120;2024-01-16T00:13:27;91357.28;;;5.35;100.00
39681;BME280;26327;42.550;23.120;2024-01-16T00:15:53;91318.38;;;5.02;100.00
39681;BME280;26327;42.550;23.120;2024-01-16T00:18:18;91285.78;;;4.88;100.00
39681;BME280;26327;42.550;23.120;2024-01-16T00:20:44;91319.13;;;4.96;100.00
39681;BME280;26327;42.550;23.120;2024-01-16T00:23:09;91376.19;;;5.21;100.00
39681;BME280;26327;42.550;23.120;2024-01-16T00:25:35;91331.00;;;4.97;100.00
39681;BME280;26327;42.550;23.120;2024-01-16T00:28:01;91390.66;;;5.22;100.00
39681;BME280;26327;42.550;23.120;2024-01-16T00:30:27;91323.34;;;5.04;100.00
39681;BME280;26327;42.550;23.120;2024-01-16T00:32:53;91395.66;;;5.52;100.00
39681;BME280;26327;42.550;23.120;2024-01-16T00:35:18;91390.19;;;5.61;100.00
39681;BME280;26327;42.550;23.120;2024-01-16T00:37:44;91281.97;;;5.05;100.00
39681;BME280;26327;42.550;23.120;2024-01-16T00:40:09;91370.13;;;5.57;100.00
39681;BME280;26327;42.550;23.120;2024-01-16T00:42:35;91375.66;;;5.75;100.00
39681;BME280;26327;42.550;23.120;2024-01-16T00:45:00;91385.63;;;5.63;100.00
39681;BME280;26327;42.550;23.120;2024-01-16T00:47:26;91391.47;;;5.72;100.00
39681;BME280;26327;42.550;23.120;2024-01-16T00:49:52;91346.00;;;5.36;100.00
39681;BME280;26327;42.550;23.120;2024-01-16T00:52:18;91337.91;;;5.40;100.00
39681;BME280;26327;42.550;23.120;2024-01-16T00:54:43;91332.94;;;5.17;100.00
39681;BME280;26327;42.550;23.120;2024-01-16T00:57:08;91393.78;;;5.67;100.00
39681;BME280;26327;42.550;23.120;2024-01-16T00:59:34;91337.34;;;5.44;100.00
39681;BME280;26327;42.550;23.120;2024-01-16T01:02:00;91350.25;;;5.23;100.00
39681;BME280;26327;42.550;23.120;2024-01-16T01:04:25;91344.69;;;5.47;100.00
39681;BME280;26327;42.550;23.120;2024-01-16T01:06:51;91333.69;;;5.32;100.00
39681;BME280;26327;42.550;23.120;2024-01-16T01:09:16;91385.03;;;5.61;100.00
39681;BME280;26327;42.550;23.120;2024-01-16T01:11:42;91369.34;;;5.84;100.00
39681;BME280;26327;42.550;23.120;2024-01-16T01:14:07;91332.94;;;5.38;100.00
39681;BME280;26327;42.550;23.120;2024-01-16T01:16:33;91376.03;;;5.72;100.00
39681;BME280;26327;42.550;23.120;2024-01-16T01:18:58;91386.22;;;5.87;100.00
39681;BME280;26327;42.550;23.120;2024-01-16T01:21:24;91338.88;;;5.38;100.00
39681;BME280;26327;42.550;23.120;2024-01-16T01:23:49;91398.16;;;5.66;100.00
39681;BME280;26327;42.550;23.120;2024-01-16T01:26:14;91395.41;;;5.68;100.00
39681;BME280;26327;42.550;23.120;2024-01-16T01:28:43;91344.38;;;5.29;100.00
39681;BME280;26327;42.550;23.120;2024-01-16T01:31:10;91395.41;;;5.47;100.00
39681;BME280;26327;42.550;23.120;2024-01-16T01:33:35;91359.81;;;5.29;100.00
39681;BME280;26327;42.550;23.120;2024-01-16T01:36:01;91399.47;;;5.56;100.00
39681;BME280;26327;42.550;23.120;2024-01-16T01:38:26;91395.72;;;5.58;100.00
39681;BME280;26327;42.550;23.120;2024-01-16T01:40:51;91403.19;;;5.53;100.00
39681;BME280;26327;42.550;23.120;2024-01-16T01:43:21;91390.75;;;5.57;100.00
39681;BME280;26327;42.550;23.120;2024-01-16T01:45:47;91412.81;;;5.66;100.00
39681;BME280;26327;42.550;23.120;2024-01-16T01:48:14;91403.63;;;5.57;100.00
39681;BME280;26327;42.550;23.120;2024-01-16T01:50:39;91402.47;;;5.38;100.00
39681;BME280;26327;42.550;23.120;2024-01-16T01:53:05;91402.47;;;5.38;100.00
39681;BME280;26327;42.550;23.120;2024-01-16T01:55:30;91408.72;;;5.50;100.00
39681;BME280;26327;42.550;23.120;2024-01-16T01:57:56;91312.06;;;4.84;100.00
39681;BME280;26327;42.550;23.120;2024-01-16T02:00:22;91361.13;;;5.46;100.00
39681;BME280;26327;42.550;23.120;2024-01-16T02:02:47;91360.53;;;5.44;100.00
39681;BME280;26327;42.550;23.120;2024-01-16T02:05:13;91364.22;;;5.35;100.00
39681;BME280;26327;42.550;23.120;2024-01-16T02:07:38;91385.72;;;5.49;100.00
39681;BME280;26327;42.550;23.120;2024-01-16T02:10:04;91408.13;;;5.69;100.00
39681;BME280;26327;42.550;23.120;2024-01-16T02:12:30;91356.50;;;5.35;100.00
39681;BME280;26327;42.550;23.120;2024-01-16T02:14:56;91406.69;;;5.67;100.00
39681;BME280;26327;42.550;23.120;2024-01-16T02:17:21;91366.69;;;5.22;100.00
39681;BME280;26327;42.550;23.120;2024-01-16T02:19:47;91419.03;;;5.50;100.00
39681;BME280;26327;42.550;23.120;2024-01-16T02:22:16;91386.25;;;5.65;100.00
39681;BME280;26327;42.550;23.120;2024-01-16T02:24:44;91396.50;;;5.59;100.00
39681;BME280;26327;42.550;23.120;2024-01-16T02:27:10;91395.56;;;5.38;100.00
39681;BME280;26327;42.550;23.120;2024-01-16T02:29:40;91438.94;;;5.84;100.00
39681;BME280;26327;42.550;23.120;2024-01-16T02:32:06;91452.34;;;6.22;100.00
39681;BME280;26327;42.550;23.120;2024-01-16T02:34:32;91424.81;;;6.29;100.00
39681;BME280;26327;42.550;23.120;2024-01-16T02:36:58;91374.81;;;5.68;100.00
39681;BME280;26327;42.550;23.120;2024-01-16T02:39:23;91464.59;;;6.48;100.00
39681;BME280;26327;42.550;23.120;2024-01-16T02:41:48;91471.09;;;6.66;100.00
39681;BME280;26327;42.550;23.120;2024-01-16T02:44:14;91473.13;;;6.77;100.00
39681;BME280;26327;42.550;23.120;2024-01-16T02:46:39;91421.09;;;5.83;100.00
39681;BME280;26327;42.550;23.120;2024-01-16T02:49:05;91388.88;;;5.44;100.00
39681;BME280;26327;42.550;23.120;2024-01-16T02:51:31;91428.31;;;6.15;100.00
39681;BME280;26327;42.550;23.120;2024-01-16T02:53:56;91448.41;;;5.56;100.00
39681;BME280;26327;42.550;23.120;2024-01-16T02:56:22;91444.50;;;6.09;100.00
39681;BME280;26327;42.550;23.120;2024-01-16T02:58:47;91423.50;;;6.12;100.00
39681;BME280;26327;42.550;23.120;2024-01-16T03:01:14;91432.44;;;5.88;100.00
39681;BME280;26327;42.550;23.120;2024-01-16T03:03:40;91491.63;;;5.75;100.00
39681;BME280;26327;42.550;23.120;2024-01-16T03:06:05;91440.72;;;5.20;100.00
39681;BME280;26327;42.550;23.120;2024-01-16T03:08:30;91467.00;;;5.73;100.00
39681;BME280;26327;42.550;23.120;2024-01-16T03:10:56;91487.78;;;5.50;100.00
39681;BME280;26327;42.550;23.120;2024-01-16T03:13:22;91459.50;;;5.35;100.00
39681;BME280;26327;42.550;23.120;2024-01-16T03:15:47;91424.47;;;5.83;100.00
39681;BME280;26327;42.550;23.120;2024-01-16T03:18:13;91490.09;;;6.30;100.00
39681;BME280;26327;42.550;23.120;2024-01-16T03:20:38;91459.94;;;6.30;100.00
39681;BME280;26327;42.550;23.120;2024-01-16T03:23:03;91471.22;;;6.02;100.00
39681;BME280;26327;42.550;23.120;2024-01-16T03:25:29;91539.66;;;6.53;100.00
39681;BME280;26327;42.550;23.120;2024-01-16T03:27:54;91544.88;;;6.60;100.00
39681;BME280;26327;42.550;23.120;2024-01-16T03:30:20;91505.28;;;6.18;100.00
39681;BME280;26327;42.550;23.120;2024-01-16T03:32:45;91549.47;;;6.37;100.00
39681;BME280;26327;42.550;23.120;2024-01-16T03:35:11;91555.25;;;6.39;100.00
39681;BME280;26327;42.550;23.120;2024-01-16T03:37:38;91576.78;;;6.52;100.00
39681;BME280;26327;42.550;23.120;2024-01-16T03:40:04;91532.34;;;6.29;100.00
39681;BME280;26327;42.550;23.120;2024-01-16T03:42:30;91568.84;;;6.54;100.00
39681;BME280;26327;42.550;23.120;2024-01-16T03:44:55;91568.53;;;6.36;100.00
39681;BME280;26327;42.550;23.120;2024-01-16T03:47:21;91562.69;;;6.06;100.00
39681;BME280;26327;42.550;23.120;2024-01-16T03:49:46;91589.00;;;6.16;100.00
39681;BME280;26327;42.550;23.120;2024-01-16T03:52:12;91594.81;;;6.24;100.00
39681;BME280;26327;42.550;23.120;2024-01-16T03:54:37;91550.34;;;6.01;100.00
39681;BME280;26327;42.550;23.120;2024-01-16T03:57:02;91564.00;;;5.95;100.00
39681;BME280;26327;42.550;23.120;2024-01-16T03:59:28;91600.31;;;6.00;100.00
39681;BME280;26327;42.550;23.120;2024-01-16T04:01:53;91625.44;;;6.13;100.00
39681;BME280;26327;42.550;23.120;2024-01-16T04:04:19;91590.53;;;5.74;100.00
39681;BME280;26327;42.550;23.120;2024-01-16T04:06:45;91645.19;;;6.06;100.00
39681;BME280;26327;42.550;23.120;2024-01-16T04:09:11;91640.97;;;5.98;100.00
39681;BME280;26327;42.550;23.120;2024-01-16T04:11:36;91641.09;;;5.75;100.00
39681;BME280;26327;42.550;23.120;2024-01-16T04:14:02;91658.66;;;5.86;100.00
39681;BME280;26327;42.550;23.120;2024-01-16T04:16:28;91631.31;;;5.56;100.00
39681;BME280;26327;42.550;23.120;2024-01-16T04:18:53;91622.78;;;5.55;100.00
39681;BME280;26327;42.550;23.120;2024-01-16T04:21:19;91634.44;;;5.51;100.00
39681;BME280;26327;42.550;23.120;2024-01-16T04:23:44;91668.72;;;5.81;100.00
39681;BME280;26327;42.550;23.120;2024-01-16T04:26:10;91670.38;;;5.89;100.00
39681;BME280;26327;42.550;23.120;2024-01-16T04:28:35;91625.69;;;5.67;100.00
39681;BME280;26327;42.550;23.120;2024-01-16T04:31:04;91685.16;;;5.95;100.00
39681;BME280;26327;42.550;23.120;2024-01-16T04:33:30;91684.59;;;5.85;100.00
39681;BME280;26327;42.550;23.120;2024-01-16T04:35:55;91656.03;;;5.35;100.00
39681;BME280;26327;42.550;23.120;2024-01-16T04:38:21;91702.16;;;5.89;100.00
39681;BME280;26327;42.550;23.120;2024-01-16T04:40:46;91706.69;;;5.73;100.00
39681;BME280;26327;42.550;23.120;2024-01-16T04:43:12;91722.91;;;6.03;100.00
39681;BME280;26327;42.550;23.120;2024-01-16T04:45:37;91665.09;;;5.46;100.00
39681;BME280;26327;42.550;23.120;2024-01-16T04:48:03;91722.84;;;5.81;100.00
39681;BME280;26327;42.550;23.120;2024-01-16T04:50:28;91737.06;;;5.77;100.00
39681;BME280;26327;42.550;23.120;2024-01-16T04:52:58;91650.59;;;5.01;100.00
39681;BME280;26327;42.550;23.120;2024-01-16T04:55:28;91740.97;;;5.58;100.00
39681;BME280;26327;42.550;23.120;2024-01-16T04:57:54;91711.28;;;5.33;100.00
39681;BME280;26327;42.550;23.120;2024-01-16T05:00:20;91701.38;;;4.92;100.00
39681;BME280;26327;42.550;23.120;2024-01-16T05:02:45;91763.91;;;5.16;100.00
39681;BME280;26327;42.550;23.120;2024-01-16T05:05:12;91674.19;;;4.75;100.00
39681;BME280;26327;42.550;23.120;2024-01-16T05:07:37;91749.06;;;5.18;100.00
39681;BME280;26327;42.550;23.120;2024-01-16T05:10:03;91735.13;;;5.12;100.00
39681;BME280;26327;42.550;23.120;2024-01-16T05:12:28;91721.44;;;4.97;100.00
39681;BME280;26327;42.550;23.120;2024-01-16T05:14:54;91768.38;;;5.22;100.00
39681;BME280;26327;42.550;23.120;2024-01-16T05:17:19;91792.09;;;5.32;100.00
39681;BME280;26327;42.550;23.120;2024-01-16T05:19:44;91811.66;;;5.41;100.00
39681;BME280;26327;42.550;23.120;2024-01-16T05:22:10;91720.69;;;4.73;100.00
39681;BME280;26327;42.550;23.120;2024-01-16T05:24:36;91766.31;;;4.80;100.00
39681;BME280;26327;42.550;23.120;2024-01-16T05:27:01;91795.81;;;4.92;100.00
39681;BME280;26327;42.550;23.120;2024-01-16T05:29:30;91826.28;;;5.03;100.00
39681;BME280;26327;42.550;23.120;2024-01-16T05:31:55;91781.22;;;4.84;100.00
39681;BME280;26327;42.550;23.120;2024-01-16T05:34:20;91833.66;;;5.06;100.00
39681;BME280;26327;42.550;23.120;2024-01-16T05:36:46;91839.19;;;5.18;100.00
39681;BME280;26327;42.550;23.120;2024-01-16T05:39:11;91858.16;;;5.25;100.00
39681;BME280;26327;42.550;23.120;2024-01-16T05:41:37;91859.75;;;5.03;100.00
39681;BME280;26327;42.550;23.120;2024-01-16T05:44:03;91866.56;;;4.96;100.00
39681;BME280;26327;42.550;23.120;2024-01-16T05:46:30;91824.31;;;4.59;100.00
39681;BME280;26327;42.550;23.120;2024-01-16T05:48:56;91841.78;;;4.41;100.00
39681;BME280;26327;42.550;23.120;2024-01-16T05:51:21;91860.72;;;4.48;100.00
39681;BME280;26327;42.550;23.120;2024-01-16T05:53:47;91877.88;;;4.56;100.00
39681;BME280;26327;42.550;23.120;2024-01-16T05:56:12;91908.53;;;4.73;100.00
39681;BME280;26327;42.550;23.120;2024-01-16T05:58:37;91873.44;;;3.94;100.00
39681;BME280;26327;42.550;23.120;2024-01-16T06:01:05;91909.66;;;4.32;100.00
39681;BME280;26327;42.550;23.120;2024-01-16T06:03:30;91936.63;;;4.36;100.00
39681;BME280;26327;42.550;23.120;2024-01-16T06:05:56;91906.31;;;4.15;100.00
39681;BME280;26327;42.550;23.120;2024-01-16T06:08:22;91950.44;;;4.43;100.00
39681;BME280;26327;42.550;23.120;2024-01-16T06:10:47;91949.25;;;3.98;100.00
39681;BME280;26327;42.550;23.120;2024-01-16T06:13:12;91991.97;;;3.99;100.00
39681;BME280;26327;42.550;23.120;2024-01-16T06:15:38;91961.28;;;3.73;100.00
39681;BME280;26327;42.550;23.120;2024-01-16T06:18:03;91990.84;;;3.77;100.00
39681;BME280;26327;42.550;23.120;2024-01-16T06:20:29;91993.72;;;3.74;100.00
39681;BME280;26327;42.550;23.120;2024-01-16T06:22:56;91937.50;;;3.23;100.00
39681;BME280;26327;42.550;23.120;2024-01-16T06:25:21;91964.50;;;3.35;100.00
39681;BME280;26327;42.550;23.120;2024-01-16T06:27:46;91945.41;;;3.37;100.00
39681;BME280;26327;42.550;23.120;2024-01-16T06:30:13;92010.56;;;3.53;100.00
39681;BME280;26327;42.550;23.120;2024-01-16T06:32:38;92030.97;;;3.62;100.00
39681;BME280;26327;42.550;23.120;2024-01-16T06:35:04;92032.41;;;3.48;100.00
39681;BME280;26327;42.550;23.120;2024-01-16T06:37:30;92042.53;;;3.74;100.00
39681;BME280;26327;42.550;23.120;2024-01-16T06:39:56;92028.88;;;3.66;100.00
39681;BME280;26327;42.550;23.120;2024-01-16T06:42:22;92052.22;;;3.89;100.00
39681;BME280;26327;42.550;23.120;2024-01-16T06:44:47;92047.22;;;3.87;100.00
39681;BME280;26327;42.550;23.120;2024-01-16T06:47:12;92010.59;;;3.77;99.85
39681;BME280;26327;42.550;23.120;2024-01-16T06:49:38;92059.28;;;4.03;100.00
39681;BME280;26327;42.550;23.120;2024-01-16T06:52:03;92052.03;;;3.90;100.00
39681;BME280;26327;42.550;23.120;2024-01-16T06:54:29;92028.44;;;3.78;100.00
39681;BME280;26327;42.550;23.120;2024-01-16T06:56:54;92083.69;;;4.23;100.00
39681;BME280;26327;42.550;23.120;2024-01-16T06:59:20;92040.00;;;3.83;99.49
39681;BME280;26327;42.550;23.120;2024-01-16T07:01:47;92096.53;;;4.07;100.00
39681;BME280;26327;42.550;23.120;2024-01-16T07:04:12;92036.16;;;3.87;98.45
39681;BME280;26327;42.550;23.120;2024-01-16T07:06:39;92089.00;;;4.14;98.81
39681;BME280;26327;42.550;23.120;2024-01-16T07:09:05;91995.00;;;3.38;98.14
39681;BME280;26327;42.550;23.120;2024-01-16T07:11:30;92058.09;;;3.65;98.35
39681;BME280;26327;42.550;23.120;2024-01-16T07:13:56;92107.63;;;3.99;97.30
39681;BME280;26327;42.550;23.120;2024-01-16T07:16:22;92095.69;;;3.74;97.37
39681;BME280;26327;42.550;23.120;2024-01-16T07:18:47;92133.16;;;3.85;97.25
39681;BME280;26327;42.550;23.120;2024-01-16T07:21:19;92130.19;;;3.71;98.39
39681;BME280;26327;42.550;23.120;2024-01-16T07:23:46;92149.94;;;3.63;99.05
39681;BME280;26327;42.550;23.120;2024-01-16T07:26:11;92149.00;;;3.72;99.66
39681;BME280;26327;42.550;23.120;2024-01-16T07:28:37;92155.13;;;3.79;100.00
39681;BME280;26327;42.550;23.120;2024-01-16T07:31:02;92109.63;;;3.13;100.00
39681;BME280;26327;42.550;23.120;2024-01-16T07:33:27;92157.59;;;3.46;100.00
39681;BME280;26327;42.550;23.120;2024-01-16T07:35:53;92173.53;;;3.58;100.00
39681;BME280;26327;42.550;23.120;2024-01-16T07:38:18;92160.13;;;3.38;100.00
39681;BME280;26327;42.550;23.120;2024-01-16T07:40:44;92123.72;;;3.09;100.00
39681;BME280;26327;42.550;23.120;2024-01-16T07:46:31;92169.66;;;3.54;99.75
39681;BME280;26327;42.550;23.120;2024-01-16T07:48:56;92148.91;;;3.39;98.51
39681;BME280;26327;42.550;23.120;2024-01-16T07:51:22;92178.31;;;3.53;97.71
39681;BME280;26327;42.550;23.120;2024-01-16T07:53:50;92137.06;;;3.12;97.88
39681;BME280;26327;42.550;23.120;2024-01-16T07:56:17;92144.88;;;3.03;97.13
39681;BME280;26327;42.550;23.120;2024-01-16T07:58:42;92176.59;;;3.28;96.61
39681;BME280;26327;42.550;23.120;2024-01-16T08:01:07;92169.47;;;3.13;96.36
39681;BME280;26327;42.550;23.120;2024-01-16T08:03:33;92201.31;;;3.29;97.04
39681;BME280;26327;42.550;23.120;2024-01-16T08:05:58;92221.28;;;3.43;95.24
39681;BME280;26327;42.550;23.120;2024-01-16T08:08:24;92222.63;;;3.55;94.23
39681;BME280;26327;42.550;23.120;2024-01-16T08:10:49;92173.63;;;3.14;94.77
39681;BME280;26327;42.550;23.120;2024-01-16T08:13:15;92176.44;;;3.29;94.28
39681;BME280;26327;42.550;23.120;2024-01-16T08:15:40;92215.88;;;3.54;94.30
39681;BME280;26327;42.550;23.120;2024-01-16T08:18:06;92246.72;;;3.54;92.71
39681;BME280;26327;42.550;23.120;2024-01-16T08:20:31;92192.06;;;3.36;92.45
39681;BME280;26327;42.550;23.120;2024-01-16T08:22:57;92222.09;;;3.43;92.17
39681;BME280;26327;42.550;23.120;2024-01-16T08:25:23;92271.66;;;3.70;92.90
39681;BME280;26327;42.550;23.120;2024-01-16T08:27:48;92275.19;;;3.69;91.57
39681;BME280;26327;42.550;23.120;2024-01-16T08:30:14;92253.41;;;3.47;92.07
39681;BME280;26327;42.550;23.120;2024-01-16T08:32:39;92277.00;;;3.42;92.87
39681;BME280;26327;42.550;23.120;2024-01-16T08:35:05;92240.22;;;3.16;93.65
39681;BME280;26327;42.550;23.120;2024-01-16T08:37:32;92265.91;;;3.42;92.11
39681;BME280;26327;42.550;23.120;2024-01-16T08:39:58;92304.06;;;3.63;93.09
39681;BME280;26327;42.550;23.120;2024-01-16T08:42:24;92308.84;;;3.58;91.71
39681;BME280;26327;42.550;23.120;2024-01-16T08:44:49;92305.09;;;3.26;92.15
39681;BME280;26327;42.550;23.120;2024-01-16T08:47:15;92324.16;;;3.41;91.77
39681;BME280;26327;42.550;23.120;2024-01-16T08:49:40;92312.22;;;3.32;91.51
39681;BME280;26327;42.550;23.120;2024-01-16T08:52:06;92329.75;;;3.37;91.49
39681;BME280;26327;42.550;23.120;2024-01-16T08:54:31;92332.91;;;3.31;89.61
39681;BME280;26327;42.550;23.120;2024-01-16T08:56:57;92330.31;;;3.31;90.07
39681;BME280;26327;42.550;23.120;2024-01-16T08:59:23;92320.94;;;3.39;89.89
39681;BME280;26327;42.550;23.120;2024-01-16T09:01:49;92277.13;;;3.15;90.07
39681;BME280;26327;42.550;23.120;2024-01-16T09:04:14;92263.47;;;2.89;90.28
39681;BME280;26327;42.550;23.120;2024-01-16T09:06:40;92323.81;;;3.19;90.39
39681;BME280;26327;42.550;23.120;2024-01-16T09:09:05;92325.94;;;3.41;89.89
39681;BME280;26327;42.550;23.120;2024-01-16T09:11:31;92287.88;;;3.19;91.48
39681;BME280;26327;42.550;23.120;2024-01-16T09:16:55;92347.63;;;3.72;88.11
39681;BME280;26327;42.550;23.120;2024-01-16T09:19:21;92349.28;;;3.56;88.09
39681;BME280;26327;42.550;23.120;2024-01-16T09:25:21;92317.56;;;3.65;88.73
39681;BME280;26327;42.550;23.120;2024-01-16T09:27:50;92308.88;;;3.66;91.20
39681;BME280;26327;42.550;23.120;2024-01-16T09:30:16;92342.84;;;4.11;89.22
39681;BME280;26327;42.550;23.120;2024-01-16T09:33:08;92333.63;;;4.35;87.16
39681;BME280;26327;42.550;23.120;2024-01-16T09:35:36;92345.88;;;4.41;85.85
39681;BME280;26327;42.550;23.120;2024-01-16T09:38:02;92340.13;;;4.63;85.89
39681;BME280;26327;42.550;23.120;2024-01-16T09:47:11;92353.25;;;4.94;84.99
39681;BME280;26327;42.550;23.120;2024-01-16T09:49:37;92304.44;;;4.60;84.70
39681;BME280;26327;42.550;23.120;2024-01-16T09:52:04;92351.84;;;5.24;83.00
39681;BME280;26327;42.550;23.120;2024-01-16T09:54:30;92286.75;;;4.57;86.26
39681;BME280;26327;42.550;23.120;2024-01-16T09:56:58;92314.63;;;5.19;83.20
39681;BME280;26327;42.550;23.120;2024-01-16T09:59:24;92298.19;;;5.52;80.43
39681;BME280;26327;42.550;23.120;2024-01-16T10:02:00;92325.50;;;6.02;81.21
39681;BME280;26327;42.550;23.120;2024-01-16T10:04:30;92316.28;;;6.16;79.45
39681;BME280;26327;42.550;23.120;2024-01-16T10:10:18;92346.22;;;6.33;75.94
39681;BME280;26327;42.550;23.120;2024-01-16T10:12:44;92347.56;;;6.21;77.79
39681;BME280;26327;42.550;23.120;2024-01-16T10:15:10;92293.03;;;5.68;77.39
39681;BME280;26327;42.550;23.120;2024-01-16T10:17:41;92347.78;;;5.71;78.41
39681;BME280;26327;42.550;23.120;2024-01-16T10:20:09;92350.34;;;5.62;77.59
39681;BME280;26327;42.550;23.120;2024-01-16T10:28:58;92342.91;;;6.00;79.52
39681;BME280;26327;42.550;23.120;2024-01-16T10:31:29;92353.91;;;6.41;77.90
39681;BME280;26327;42.550;23.120;2024-01-16T10:33:55;92306.00;;;5.99;74.31
39681;BME280;26327;42.550;23.120;2024-01-16T10:36:23;92320.31;;;6.18;78.15
39681;BME280;26327;42.550;23.120;2024-01-16T10:38:49;92307.91;;;6.06;75.57
39681;BME280;26327;42.550;23.120;2024-01-16T10:41:56;92347.25;;;6.86;72.92
39681;BME280;26327;42.550;23.120;2024-01-16T10:44:22;92345.88;;;6.98;74.49
39681;BME280;26327;42.550;23.120;2024-01-16T10:46:47;92354.75;;;7.26;72.94
39681;BME280;26327;42.550;23.120;2024-01-16T10:49:13;92357.50;;;7.48;71.98
39681;BME280;26327;42.550;23.120;2024-01-16T10:51:43;92286.06;;;7.70;71.12
39681;BME280;26327;42.550;23.120;2024-01-16T10:54:12;92355.19;;;7.53;71.55
39681;BME280;26327;42.550;23.120;2024-01-16T10:56:46;92355.31;;;9.22;69.95
39681;BME280;26327;42.550;23.120;2024-01-16T10:59:18;92274.16;;;9.98;62.58
39681;BME280;26327;42.550;23.120;2024-01-16T11:05:06;92370.75;;;9.94;62.71
39681;BME280;26327;42.550;23.120;2024-01-16T11:07:34;92330.78;;;9.45;62.80
39681;BME280;26327;42.550;23.120;2024-01-16T11:10:01;92326.47;;;8.74;65.83
39681;BME280;26327;42.550;23.120;2024-01-16T11:12:29;92347.66;;;9.13;61.19
39681;BME280;26327;42.550;23.120;2024-01-16T11:14:56;92305.31;;;7.82;69.17
39681;BME280;26327;42.550;23.120;2024-01-16T11:17:25;92307.22;;;8.62;63.23
39681;BME280;26327;42.550;23.120;2024-01-16T11:19:50;92348.28;;;8.65;67.33
39681;BME280;26327;42.550;23.120;2024-01-16T11:22:17;92292.16;;;7.54;69.96
39681;BME280;26327;42.550;23.120;2024-01-16T11:24:43;92355.28;;;7.82;67.10
39681;BME280;26327;42.550;23.120;2024-01-16T11:27:21;92287.94;;;7.38;66.72
39681;BME280;26327;42.550;23.120;2024-01-16T11:29:50;92366.25;;;7.84;65.87
39681;BME280;26327;42.550;23.120;2024-01-16T11:32:41;92336.44;;;7.74;65.79
39681;BME280;26327;42.550;23.120;2024-01-16T11:35:10;92369.25;;;7.73;66.96
39681;BME280;26327;42.550;23.120;2024-01-16T11:37:41;92312.31;;;6.98;71.20
39681;BME280;26327;42.550;23.120;2024-01-16T11:46:07;92353.94;;;6.72;71.13
39681;BME280;26327;42.550;23.120;2024-01-16T11:48:35;92363.66;;;6.23;74.78
39681;BME280;26327;42.550;23.120;2024-01-16T11:54:08;92374.84;;;5.42;76.50
39681;BME280;26327;42.550;23.120;2024-01-16T12:02:21;92372.03;;;6.25;72.15
39681;BME280;26327;42.550;23.120;2024-01-16T12:04:52;92381.34;;;6.34;72.54
39681;BME280;26327;42.550;23.120;2024-01-16T12:07:19;92398.13;;;6.77;70.39
39681;BME280;26327;42.550;23.120;2024-01-16T12:09:44;92379.81;;;6.00;71.61
39681;BME280;26327;42.550;23.120;2024-01-16T12:12:10;92347.94;;;5.53;72.52
39681;BME280;26327;42.550;23.120;2024-01-16T12:14:37;92353.25;;;5.84;72.07
39681;BME280;26327;42.550;23.120;2024-01-16T12:17:13;92349.66;;;6.17;68.21
39681;BME280;26327;42.550;23.120;2024-01-16T12:25:31;92398.91;;;6.39;69.05
39681;BME280;26327;42.550;23.120;2024-01-16T12:28:01;92393.72;;;6.47;69.66
39681;BME280;26327;42.550;23.120;2024-01-16T12:30:29;92406.91;;;6.60;69.70
39681;BME280;26327;42.550;23.120;2024-01-16T12:33:10;92393.59;;;6.40;71.29
39681;BME280;26327;42.550;23.120;2024-01-16T12:35:36;92415.09;;;6.72;69.43
39681;BME280;26327;42.550;23.120;2024-01-16T12:38:03;92407.31;;;6.80;69.47
39681;BME280;26327;42.550;23.120;2024-01-16T12:40:31;92395.91;;;6.74;70.43
39681;BME280;26327;42.550;23.120;2024-01-16T12:42:57;92402.44;;;6.85;71.69
39681;BME280;26327;42.550;23.120;2024-01-16T12:45:23;92397.66;;;7.05;70.99
39681;BME280;26327;42.550;23.120;2024-01-16T12:47:52;92351.16;;;6.82;73.19
39681;BME280;26327;42.550;23.120;2024-01-16T12:50:22;92344.16;;;6.90;70.14
39681;BME280;26327;42.550;23.120;2024-01-16T12:53:07;92388.06;;;7.21;70.47
39681;BME280;26327;42.550;23.120;2024-01-16T12:55:34;92379.91;;;7.10;72.66
39681;BME280;26327;42.550;23.120;2024-01-16T13:00:48;92348.41;;;6.83;70.16
39681;BME280;26327;42.550;23.120;2024-01-16T13:03:34;92405.56;;;7.34;69.04
39681;BME280;26327;42.550;23.120;2024-01-16T13:06:00;92347.63;;;6.75;69.00
39681;BME280;26327;42.550;23.120;2024-01-16T13:08:26;92427.78;;;6.89;72.69
39681;BME280;26327;42.550;23.120;2024-01-16T13:11:06;92416.50;;;6.35;73.92
39681;BME280;26327;42.550;23.120;2024-01-16T13:13:32;92363.03;;;6.13;75.20
39681;BME280;26327;42.550;23.120;2024-01-16T13:15:59;92426.75;;;6.59;72.37
39681;BME280;26327;42.550;23.120;2024-01-16T13:18:26;92404.53;;;6.50;71.11
39681;BME280;26327;42.550;23.120;2024-01-16T13:24:13;92431.09;;;6.67;73.14
39681;BME280;26327;42.550;23.120;2024-01-16T13:30:19;92416.97;;;6.39;73.46
39681;BME280;26327;42.550;23.120;2024-01-16T13:32:44;92378.03;;;6.09;73.75
39681;BME280;26327;42.550;23.120;2024-01-16T13:35:10;92428.25;;;6.46;73.05
39681;BME280;26327;42.550;23.120;2024-01-16T13:37:36;92392.22;;;6.05;74.44
39681;BME280;26327;42.550;23.120;2024-01-16T13:40:05;92431.34;;;6.33;74.83
39681;BME280;26327;42.550;23.120;2024-01-16T13:42:35;92386.59;;;5.93;76.30
39681;BME280;26327;42.550;23.120;2024-01-16T13:45:00;92397.56;;;5.79;77.07
39681;BME280;26327;42.550;23.120;2024-01-16T13:47:26;92426.56;;;6.06;78.06
39681;BME280;26327;42.550;23.120;2024-01-16T13:49:51;92406.44;;;5.68;78.84
39681;BME280;26327;42.550;23.120;2024-01-16T13:52:17;92435.56;;;5.53;79.87